createdAt,value
2023-04-13T00:00:24.225Z,6.69
2023-04-13T00:05:28.369Z,6.71
2023-04-13T00:10:36.488Z,6.76
2023-04-13T00:15:43.240Z,6.88
2023-04-13T00:20:46.828Z,6.94
2023-04-13T00:25:50.094Z,7.02
2023-04-13T00:30:53.173Z,7.08
2023-04-13T00:35:56.419Z,7.11
2023-04-13T00:40:59.511Z,7.16
2023-04-13T00:46:02.539Z,7.17
2023-04-13T00:51:06.096Z,7.22
2023-04-13T00:56:10.183Z,7.22
2023-04-13T01:01:13.002Z,7.25
2023-04-13T01:06:44.192Z,7.29
2023-04-13T01:12:02.721Z,7.32
2023-04-13T01:17:17.699Z,7.31
2023-04-13T01:22:25.742Z,7.33
2023-04-13T01:27:55.731Z,7.33
2023-04-13T01:33:02.389Z,7.29
2023-04-13T01:38:07.054Z,7.27
2023-04-13T01:43:10.352Z,7.28
2023-04-13T01:48:31.849Z,7.28
2023-04-13T01:53:47.647Z,7.32
2023-04-13T01:58:58.182Z,7.33
2023-04-13T02:04:02.835Z,7.34
2023-04-13T02:09:09.230Z,7.38
2023-04-13T02:14:12.327Z,7.40
2023-04-13T02:19:15.293Z,7.39
2023-04-13T02:24:18.266Z,7.39
2023-04-13T02:29:21.733Z,7.38
2023-04-13T02:34:24.796Z,7.38
2023-04-13T02:39:27.846Z,7.41
2023-04-13T02:44:31.156Z,7.39
2023-04-13T02:49:34.366Z,7.41
2023-04-13T02:54:37.472Z,7.42
2023-04-13T02:59:40.848Z,7.37
2023-04-13T03:04:44.458Z,7.38
2023-04-13T03:09:48.312Z,7.34
2023-04-13T03:14:51.654Z,7.38
2023-04-13T03:19:54.602Z,7.42
2023-04-13T03:24:57.492Z,7.43
2023-04-13T03:30:00.571Z,7.43
2023-04-13T03:35:03.998Z,7.45
2023-04-13T03:40:10.925Z,7.44
2023-04-13T03:45:13.996Z,7.44
2023-04-13T03:50:17.186Z,7.44
2023-04-13T03:55:20.390Z,7.46
2023-04-13T04:00:23.576Z,7.47
2023-04-13T04:05:26.542Z,7.46
2023-04-13T04:10:29.400Z,7.51
2023-04-13T04:15:32.359Z,7.55
2023-04-13T04:20:35.387Z,7.60
2023-04-13T04:25:39.983Z,7.62
2023-04-13T04:30:45.934Z,7.66
2023-04-13T04:35:52.191Z,7.69
2023-04-13T04:40:57.819Z,7.78
2023-04-13T04:46:03.234Z,7.86
2023-04-13T04:51:08.550Z,7.92
2023-04-13T04:56:11.595Z,8.00
2023-04-13T05:01:14.458Z,8.07
2023-04-13T05:06:17.420Z,8.21
2023-04-13T05:11:21.430Z,8.40
2023-04-13T05:16:26.514Z,8.56
2023-04-13T05:21:31.594Z,8.78
2023-04-13T05:26:35.008Z,9.00
2023-04-13T05:31:38.152Z,9.24
2023-04-13T05:36:41.523Z,9.48
2023-04-13T05:41:44.506Z,9.82
2023-04-13T05:46:50.609Z,10.04
2023-04-13T05:51:54.775Z,10.20
2023-04-13T05:56:57.791Z,10.23
2023-04-13T06:02:03.089Z,10.30
2023-04-13T06:07:06.946Z,10.41
2023-04-13T06:12:10.379Z,10.52
2023-04-13T06:17:13.379Z,10.56
2023-04-13T06:22:16.863Z,10.69
2023-04-13T06:27:19.879Z,10.66
2023-04-13T06:32:22.812Z,10.76
2023-04-13T06:37:25.886Z,10.81
2023-04-13T06:42:28.874Z,10.92
2023-04-13T06:47:32.384Z,11.06
2023-04-13T06:52:36.343Z,11.23
2023-04-13T06:57:39.997Z,11.45
2023-04-13T07:02:43.394Z,11.78
2023-04-13T07:07:46.606Z,11.94
2023-04-13T07:12:50.118Z,12.17
2023-04-13T07:17:53.498Z,12.28
2023-04-13T07:22:56.454Z,12.28
2023-04-13T07:27:59.386Z,12.31
2023-04-13T07:33:02.548Z,12.37
2023-04-13T07:38:06.614Z,12.70
2023-04-13T07:43:09.709Z,12.88
2023-04-13T07:48:12.998Z,12.99
2023-04-13T07:53:16.334Z,13.11
2023-04-13T07:58:19.430Z,13.31
2023-04-13T08:03:22.368Z,13.52
2023-04-13T08:08:25.404Z,13.52
2023-04-13T08:13:30.101Z,13.64
2023-04-13T08:18:33.347Z,13.83
2023-04-13T08:23:37.423Z,14.14
2023-04-13T08:28:40.431Z,14.58
2023-04-13T08:33:43.795Z,15.01
2023-04-13T08:38:47.145Z,15.33
2023-04-13T08:43:51.668Z,15.48
2023-04-13T08:48:56.803Z,15.47
2023-04-13T08:54:00.150Z,15.79
2023-04-13T08:59:07.598Z,16.05
2023-04-13T09:04:14.499Z,16.21
2023-04-13T09:09:21.176Z,16.55
2023-04-13T09:14:25.367Z,16.96
2023-04-13T09:19:33.249Z,18.09
2023-04-13T09:24:41.246Z,19.19
2023-04-13T09:29:56.453Z,20.09
2023-04-13T09:35:08.464Z,20.40
2023-04-13T09:40:14.828Z,20.40
2023-04-13T09:45:17.985Z,19.86
2023-04-13T09:50:28.504Z,19.31
2023-04-13T09:55:39.765Z,18.68
2023-04-13T10:00:46.775Z,18.11
2023-04-13T10:05:59.623Z,17.74
2023-04-13T10:11:04.484Z,17.44
2023-04-13T10:16:16.608Z,17.07
2023-04-13T10:21:20.154Z,16.85
2023-04-13T10:26:33.690Z,16.66
2023-04-13T10:31:49.349Z,16.39
2023-04-13T10:36:55.443Z,16.26
2023-04-13T10:42:10.168Z,16.23
2023-04-13T10:47:15.241Z,16.20
2023-04-13T10:52:18.712Z,16.30
2023-04-13T10:57:21.916Z,16.46
2023-04-13T11:02:33.135Z,16.68
2023-04-13T11:07:39.357Z,16.77
2023-04-13T11:12:54.335Z,16.79
2023-04-13T11:18:00.953Z,16.81
2023-04-13T11:23:13.465Z,16.81
2023-04-13T11:28:16.531Z,17.01
2023-04-13T11:33:30.202Z,17.37
2023-04-13T11:38:33.337Z,17.81
2023-04-13T11:43:37.371Z,18.02
2023-04-13T11:48:40.687Z,17.78
2023-04-13T11:53:44.126Z,17.65
2023-04-13T11:58:51.698Z,17.71
2023-04-13T12:04:12.893Z,18.02
2023-04-13T12:09:22.199Z,17.99
2023-04-13T12:24:40.140Z,18.57
2023-04-13T12:29:43.520Z,18.66
2023-04-13T12:34:47.305Z,18.37
2023-04-13T12:39:50.302Z,18.08
2023-04-13T12:44:55.161Z,18.00
2023-04-13T12:49:58.185Z,17.95
2023-04-13T12:55:02.447Z,17.91
2023-04-13T13:00:10.698Z,18.03
2023-04-13T13:05:13.685Z,18.13
2023-04-13T13:10:28.972Z,18.27
2023-04-13T13:15:33.471Z,18.50
2023-04-13T13:20:41.444Z,18.43
2023-04-13T13:25:54.297Z,18.44
2023-04-13T13:31:00.537Z,18.07
2023-04-13T13:36:03.732Z,18.06
2023-04-13T13:41:06.748Z,17.98
2023-04-13T13:46:11.283Z,17.71
2023-04-13T13:51:14.591Z,17.64
2023-04-13T13:56:17.776Z,17.49
2023-04-13T14:01:21.051Z,17.42
2023-04-13T14:06:24.044Z,17.47
2023-04-13T14:11:27.508Z,17.63
2023-04-13T14:16:30.982Z,17.66
2023-04-13T14:21:34.009Z,17.65
2023-04-13T14:26:38.337Z,17.58
2023-04-13T14:31:41.302Z,17.41
2023-04-13T14:36:44.824Z,17.32
2023-04-13T14:41:47.881Z,17.19
2023-04-13T14:46:50.934Z,17.06
2023-04-13T14:51:53.949Z,17.00
2023-04-13T14:56:57.125Z,16.89
2023-04-13T15:02:01.017Z,16.82
2023-04-13T15:07:04.377Z,16.74
2023-04-13T15:12:13.361Z,16.75
2023-04-13T15:17:16.888Z,16.60
2023-04-13T15:22:20.537Z,16.44
2023-04-13T15:27:27.007Z,16.22
2023-04-13T15:32:30.488Z,16.04
2023-04-13T15:37:33.606Z,15.74
2023-04-13T15:42:36.634Z,15.50
2023-04-13T15:47:39.763Z,15.24
2023-04-13T15:52:42.586Z,15.05
2023-04-13T15:57:45.790Z,14.93
2023-04-13T16:02:48.823Z,14.80
2023-04-13T16:07:52.662Z,14.77
2023-04-13T16:12:55.573Z,14.80
2023-04-13T16:17:58.530Z,14.84
2023-04-13T16:23:04.876Z,14.86
2023-04-13T16:28:07.961Z,14.83
2023-04-13T16:33:11.115Z,14.81
2023-04-13T16:38:14.191Z,14.77
2023-04-13T16:43:17.192Z,14.72
2023-04-13T16:48:21.086Z,14.65
2023-04-13T16:53:24.134Z,14.53
2023-04-13T16:58:26.925Z,14.41
2023-04-13T17:03:30.558Z,14.16
2023-04-13T17:08:33.601Z,13.96
2023-04-13T17:13:36.986Z,13.66
2023-04-13T17:18:40.717Z,13.39
2023-04-13T17:23:45.021Z,13.21
2023-04-13T17:28:48.114Z,13.03
2023-04-13T17:33:51.471Z,12.90
2023-04-13T17:38:54.461Z,12.75
2023-04-13T17:43:57.647Z,12.62
2023-04-13T17:49:00.609Z,12.52
2023-04-13T17:54:07.898Z,12.44
2023-04-13T17:59:14.918Z,12.33
2023-04-13T18:04:18.108Z,12.25
2023-04-13T18:09:22.536Z,12.22
2023-04-13T18:14:25.496Z,12.19
2023-04-13T18:19:30.516Z,12.17
2023-04-13T18:24:33.477Z,12.15
2023-04-13T18:29:36.444Z,12.12
2023-04-13T18:34:42.274Z,12.07
2023-04-13T18:39:45.576Z,12.00
2023-04-13T18:44:48.664Z,11.94
2023-04-13T18:49:51.967Z,11.85
2023-04-13T18:54:55.308Z,11.79
2023-04-13T18:59:58.457Z,11.70
2023-04-13T19:05:01.763Z,11.62
2023-04-13T19:10:05.753Z,11.58
2023-04-13T19:15:11.748Z,11.49
2023-04-13T19:20:14.682Z,11.46
2023-04-13T19:25:19.433Z,11.39
2023-04-13T19:30:22.407Z,11.37
2023-04-13T19:35:26.378Z,11.34
2023-04-13T19:40:29.505Z,11.31
2023-04-13T19:45:32.804Z,11.32
2023-04-13T19:50:35.970Z,11.28
2023-04-13T19:55:38.809Z,11.25
2023-04-13T20:00:42.370Z,11.20
2023-04-13T20:05:46.453Z,11.13
2023-04-13T20:10:49.581Z,11.07
2023-04-13T20:15:52.722Z,11.02
2023-04-13T20:20:55.839Z,11.02
2023-04-13T20:25:58.677Z,10.98
2023-04-13T20:31:02.017Z,10.97
2023-04-13T20:36:05.460Z,10.95
2023-04-13T20:41:10.528Z,10.97
2023-04-13T20:46:16.569Z,10.98
2023-04-13T20:51:22.992Z,10.97
2023-04-13T20:56:26.431Z,11.05
2023-04-13T21:01:32.296Z,11.08
2023-04-13T21:06:35.575Z,11.12
2023-04-13T21:11:38.549Z,11.19
2023-04-13T21:16:41.640Z,11.26
2023-04-13T21:21:44.842Z,11.27
2023-04-13T21:26:48.317Z,11.28
2023-04-13T21:31:51.722Z,11.20
2023-04-13T21:36:54.881Z,11.03
2023-04-13T21:41:58.175Z,10.82
2023-04-13T21:47:01.198Z,10.57
2023-04-13T21:52:04.693Z,10.40
2023-04-13T21:57:07.720Z,10.25
2023-04-13T22:02:11.038Z,10.15
2023-04-13T22:07:14.230Z,10.06
2023-04-13T22:12:17.232Z,9.98
2023-04-13T22:17:20.233Z,9.90
2023-04-13T22:22:23.406Z,9.88
2023-04-13T22:27:26.430Z,9.82
2023-04-13T22:32:29.371Z,9.79
2023-04-13T22:37:32.981Z,9.76
2023-04-13T22:42:35.988Z,9.72
2023-04-13T22:47:39.049Z,9.68
2023-04-13T22:52:41.856Z,9.59
2023-04-13T22:57:45.640Z,9.55
2023-04-13T23:02:50.560Z,9.53
2023-04-13T23:07:54.326Z,9.51
2023-04-13T23:12:58.093Z,9.46
2023-04-13T23:18:02.860Z,9.43
2023-04-13T23:23:06.223Z,9.33
2023-04-13T23:28:09.971Z,9.23
2023-04-13T23:33:13.175Z,9.15
2023-04-13T23:38:16.347Z,9.10
2023-04-13T23:43:19.347Z,9.04
2023-04-13T23:48:24.693Z,9.02
2023-04-13T23:53:27.720Z,9.04
2023-04-13T23:58:30.712Z,9.14
